LJPZ Airport Information

Runway Information
Runway 15 Length 3939 ft width 98 ft
Elevation 5 ft Threshold 0 ft Heading 151
Runway 33 Length 3939 ft Width 98 ft
Elevation 7 ft Threshold 752 ft Heading 331
Airport Frequencies
Type APP Name Portoro┼ż T Frequency 124.875 MHZ
Airport Navaids
Type NDB Name Portoroz Frequency 388 KHZ
Airport Weather Information & NOTAM
ADDS - METARS form results

(1516 UTC 14 June 2021)
Data provider http://aviationweather.gov/metar/data/
 
METAR text: LJPZ 141500Z 25006KT 210V300 CAVOK 26/15 Q1017
Conditions at: LJPZ (PORTOROZ , SI) observed 1500 UTC 14 June 2021
Temperature: 26.0°C (79°F)
Dewpoint: 15.0°C (59°F) [RH = 51%]
Pressure (altimeter): 30.03 inches Hg (1017.0 mb)
Winds: from the WSW (250 degrees) at 7 MPH (6 knots; 3.1 m/s)
Visibility: 6 or more miles (10+ km)
Ceiling: ceiling and visibility are OK
Clouds: unknown
Weather: no significant weather observed at this time

METAR text: LJPZ 141430Z 25007KT 210V290 CAVOK 26/15 Q1017
Conditions at: LJPZ (PORTOROZ , SI) observed 1430 UTC 14 June 2021
Temperature: 26.0°C (79°F)
Dewpoint: 15.0°C (59°F) [RH = 51%]
Pressure (altimeter): 30.03 inches Hg (1017.0 mb)
Winds: from the WSW (250 degrees) at 8 MPH (7 knots; 3.6 m/s)
Visibility: 6 or more miles (10+ km)
Ceiling: ceiling and visibility are OK
Clouds: unknown
Weather: no significant weather observed at this time

Forecast for: LJPZ (PORTOROZ , SI)
Text: TAF LJPZ 141400Z 1415/1424 30008KT CAVOK
Forecast period: 1500 UTC 14 June 2021 to 0000 UTC 15 June 2021
Forecast type: FROM: standard forecast or significant change
Winds: from the WNW (300 degrees) at 9 MPH (8 knots; 4.1 m/s)
Visibility: 6 or more miles (10+ km)
Ceiling: unknown
Clouds: missing
Weather: NSW  (no significant weather)